Time;durP1;ratioP1;P1;durP2;ratioP2;P2;SDS_P1;SDS_P2;PMS_P1;PMS_P2;Temp;Humidity;BMP_temperature;BMP_pressure;BME280_temperature;BME280_humidity;BME280_pressure;Samples;Min_cycle;Max_cycle;Signal;HPM_P1;HPM_P2
2024/01/02 00:04:24;;;;;;;2.70;1.67;;;9.10;94.10;;;;;;10419154;28;20229;-77
2024/01/02 00:09:26;;;;;;;2.87;1.70;;;9.10;94.20;;;;;;10418441;28;20214;-77
2024/01/02 00:14:30;;;;;;;3.57;1.60;;;9.10;94.20;;;;;;10417453;28;20198;-77
2024/01/02 00:19:32;;;;;;;6.03;2.80;;;9.20;94.40;;;;;;10416294;28;20268;-77
2024/01/02 00:24:35;;;;;;;2.60;1.63;;;9.20;94.40;;;;;;10415616;28;20240;-77
2024/01/02 00:29:38;;;;;;;2.80;1.50;;;9.20;94.50;;;;;;10416130;28;20225;-77
2024/01/02 00:34:41;;;;;;;1.97;1.20;;;9.10;94.70;;;;;;10428997;28;20749;-77
2024/01/02 00:39:43;;;;;;;3.00;1.73;;;9.20;94.60;;;;;;10413339;28;20229;-77
2024/01/02 00:44:47;;;;;;;1.53;1.43;;;9.10;94.60;;;;;;10410609;28;20226;-77
2024/01/02 00:49:49;;;;;;;1.93;1.33;;;9.10;94.90;;;;;;10412073;28;20217;-77
2024/01/02 00:54:52;;;;;;;2.00;1.37;;;9.20;94.70;;;;;;10426253;28;20599;-77
2024/01/02 00:59:56;;;;;;;3.00;1.80;;;9.20;94.80;;;;;;10419802;28;20276;-77
2024/01/02 01:04:58;;;;;;;1.27;1.27;;;9.10;94.60;;;;;;10416564;28;20209;-77
2024/01/02 01:10:01;;;;;;;7.90;1.87;;;9.20;94.60;;;;;;10416773;28;20699;-77
2024/01/02 01:15:05;;;;;;;6.20;3.10;;;9.10;94.80;;;;;;10415651;28;20186;-77
2024/01/02 01:20:09;;;;;;;1.77;1.67;;;9.10;94.70;;;;;;10415305;28;20221;-77
2024/01/02 01:25:12;;;;;;;5.90;1.63;;;9.10;94.80;;;;;;10414484;28;20225;-77
2024/01/02 01:30:16;;;;;;;1.50;1.40;;;9.10;94.60;;;;;;10429442;28;20237;-77
2024/01/02 01:35:18;;;;;;;2.10;1.90;;;9.10;94.80;;;;;;10427639;28;20202;-77
2024/01/02 01:40:21;;;;;;;2.70;1.20;;;9.20;94.60;;;;;;10412361;28;20218;-77
2024/01/02 01:45:24;;;;;;;1.50;1.40;;;9.20;94.80;;;;;;10416526;28;20260;-77
2024/01/02 01:50:29;;;;;;;1.53;1.43;;;9.20;94.80;;;;;;10453186;28;20627;-77
2024/01/02 01:55:31;;;;;;;2.30;1.80;;;9.20;94.70;;;;;;10455496;28;20670;-76
2024/01/02 02:00:36;;;;;;;1.53;1.37;;;9.20;94.60;;;;;;10441905;28;20221;-76
2024/01/02 02:05:39;;;;;;;1.60;1.50;;;9.20;94.70;;;;;;10446778;28;20221;-77
2024/01/02 02:10:41;;;;;;;1.20;1.20;;;9.20;94.80;;;;;;10448874;28;20221;-77
2024/01/02 02:15:48;;;;;;;2.40;1.50;;;9.20;94.70;;;;;;10450967;28;20224;-77
2024/01/02 02:20:51;;;;;;;2.57;1.50;;;9.20;94.90;;;;;;10451556;28;20263;-77
2024/01/02 02:25:54;;;;;;;1.30;1.20;;;9.30;95.00;;;;;;10450681;28;20243;-76
2024/01/02 02:30:57;;;;;;;1.43;1.33;;;9.30;95.10;;;;;;10465755;23;20290;-77
2024/01/02 02:35:59;;;;;;;1.43;1.30;;;9.30;95.30;;;;;;10495429;28;20189;-78
2024/01/02 02:41:03;;;;;;;1.47;1.37;;;9.30;95.30;;;;;;10518222;28;20621;-79
2024/01/02 02:46:06;;;;;;;4.23;1.47;;;9.30;95.50;;;;;;10542397;28;20219;-78
2024/01/02 02:51:08;;;;;;;1.50;1.40;;;9.30;95.80;;;;;;10549081;28;20273;-78
2024/01/02 02:56:16;;;;;;;2.20;1.20;;;9.30;96.00;;;;;;10541177;28;20665;-78
2024/01/02 03:01:22;;;;;;;1.83;1.40;;;9.20;96.40;;;;;;10533374;28;20246;-79
2024/01/02 03:06:24;;;;;;;1.97;1.67;;;9.20;96.60;;;;;;10520053;28;20219;-78
2024/01/02 03:11:28;;;;;;;2.87;1.50;;;9.00;96.90;;;;;;10532890;28;20277;-77
2024/01/02 03:16:31;;;;;;;1.30;1.30;;;8.90;97.10;;;;;;10533182;28;20192;-77
2024/01/02 03:21:33;;;;;;;1.20;1.20;;;8.80;97.80;;;;;;10534468;28;20241;-77
2024/01/02 03:26:37;;;;;;;1.80;1.70;;;8.80;97.90;;;;;;10534210;28;20219;-78
2024/01/02 03:31:39;;;;;;;1.80;1.77;;;8.60;98.50;;;;;;10528983;28;20232;-77
2024/01/02 03:36:42;;;;;;;1.70;1.60;;;8.50;99.50;;;;;;10535349;28;20620;-77
2024/01/02 03:41:45;;;;;;;2.17;2.07;;;8.40;99.70;;;;;;10511207;28;20222;-77
2024/01/02 03:46:48;;;;;;;3.10;3.00;;;8.30;99.90;;;;;;10469484;28;20302;-78
2024/01/02 03:51:50;;;;;;;3.10;3.00;;;8.20;99.90;;;;;;10528764;28;20285;-79
2024/01/02 03:56:54;;;;;;;3.37;3.17;;;8.10;99.90;;;;;;10537238;28;20188;-77
2024/01/02 04:01:56;;;;;;;3.40;3.20;;;8.00;99.90;;;;;;10503346;28;20632;-78
2024/01/02 04:06:59;;;;;;;3.87;3.77;;;8.00;99.90;;;;;;10512898;28;20212;-78
2024/01/02 04:12:02;;;;;;;3.73;3.63;;;8.00;99.90;;;;;;10531253;28;20629;-78
2024/01/02 04:17:05;;;;;;;3.90;3.80;;;7.90;99.90;;;;;;10532474;28;20180;-77
2024/01/02 04:22:07;;;;;;;4.50;4.40;;;7.90;99.90;;;;;;10532824;28;20269;-77
2024/01/02 04:27:11;;;;;;;3.90;3.80;;;7.80;99.90;;;;;;10530442;28;20220;-78
2024/01/02 04:32:15;;;;;;;3.90;3.80;;;7.80;99.90;;;;;;10523298;28;20234;-78
2024/01/02 04:37:17;;;;;;;5.10;5.00;;;7.70;99.90;;;;;;10534793;28;20203;-78
2024/01/02 04:42:21;;;;;;;4.80;4.70;;;7.70;99.90;;;;;;10535501;28;20700;-79
2024/01/02 04:47:23;;;;;;;4.83;4.53;;;7.80;99.90;;;;;;10504442;28;20281;-78
2024/01/02 04:52:25;;;;;;;4.90;4.80;;;7.70;99.90;;;;;;10538279;28;20217;-76
2024/01/02 04:57:29;;;;;;;5.50;5.20;;;7.70;99.90;;;;;;10541915;28;20199;-78
2024/01/02 05:02:32;;;;;;;4.67;4.57;;;7.60;99.90;;;;;;10527725;28;20223;-78
2024/01/02 05:07:34;;;;;;;5.50;5.30;;;7.60;99.90;;;;;;10527354;28;20227;-78
2024/01/02 05:12:39;;;;;;;5.70;5.50;;;7.50;99.90;;;;;;10491113;28;20220;-77
2024/01/02 05:17:41;;;;;;;7.33;5.73;;;7.40;99.90;;;;;;10527781;28;20199;-77
2024/01/02 05:22:43;;;;;;;6.17;5.97;;;7.40;99.90;;;;;;10501395;28;20700;-78
2024/01/02 05:27:47;;;;;;;5.70;5.50;;;7.40;99.90;;;;;;10519795;28;20228;-77
2024/01/02 05:32:49;;;;;;;7.10;6.90;;;7.50;99.90;;;;;;10514497;28;20227;-78
2024/01/02 05:37:52;;;;;;;6.87;6.33;;;7.40;99.90;;;;;;10525481;28;20249;-77
2024/01/02 05:42:55;;;;;;;8.47;8.17;;;7.40;99.90;;;;;;10535134;28;20220;-80
2024/01/02 05:48:00;;;;;;;8.30;7.90;;;7.40;99.90;;;;;;10537648;28;20227;-79
2024/01/02 05:53:05;;;;;;;8.50;8.13;;;7.40;99.90;;;;;;10536384;28;20239;-78
2024/01/02 05:58:09;;;;;;;6.20;6.00;;;7.40;99.90;;;;;;10520459;28;20242;-78
2024/01/02 06:03:12;;;;;;;7.10;6.90;;;7.40;99.90;;;;;;10507969;28;20219;-77
2024/01/02 06:08:14;;;;;;;7.00;6.80;;;7.40;99.90;;;;;;10507806;28;20666;-77
2024/01/02 06:13:18;;;;;;;8.00;7.60;;;7.40;99.90;;;;;;10478525;28;20225;-77
2024/01/02 06:18:20;;;;;;;7.10;6.80;;;7.50;99.90;;;;;;10500190;28;20557;-77
2024/01/02 06:23:22;;;;;;;8.17;7.83;;;7.50;99.90;;;;;;10494056;28;20220;-76
2024/01/02 06:28:26;;;;;;;6.47;6.17;;;7.50;99.90;;;;;;10484295;28;20251;-77
2024/01/02 06:33:28;;;;;;;7.67;7.37;;;7.50;99.90;;;;;;10516529;28;20231;-77
2024/01/02 06:38:31;;;;;;;7.70;7.40;;;7.50;99.90;;;;;;10534434;28;20200;-77
2024/01/02 06:43:34;;;;;;;8.33;7.40;;;7.50;99.90;;;;;;10535311;28;20284;-76
2024/01/02 06:48:37;;;;;;;7.07;6.70;;;7.50;99.90;;;;;;10536501;28;20732;-77
2024/01/02 06:53:39;;;;;;;5.83;5.70;;;7.50;99.90;;;;;;10536427;28;20602;-80
2024/01/02 06:58:44;;;;;;;6.50;6.30;;;7.50;99.90;;;;;;10522670;28;20194;-77
2024/01/02 07:03:47;;;;;;;7.00;6.70;;;7.60;99.90;;;;;;10506941;28;20593;-77
2024/01/02 07:08:49;;;;;;;6.20;6.00;;;7.60;99.90;;;;;;10530771;28;20203;-77
2024/01/02 07:13:53;;;;;;;6.50;6.30;;;7.60;99.90;;;;;;10504831;28;20219;-77
2024/01/02 07:18:55;;;;;;;7.47;7.17;;;7.60;99.90;;;;;;10531184;28;20207;-77
2024/01/02 07:24:00;;;;;;;7.50;7.30;;;7.70;99.90;;;;;;10531823;28;20688;-77
2024/01/02 07:29:03;;;;;;;8.10;7.80;;;7.70;99.90;;;;;;10514756;28;20200;-79
2024/01/02 07:34:06;;;;;;;7.30;7.10;;;7.70;99.90;;;;;;10509674;28;20250;-78
2024/01/02 07:39:09;;;;;;;7.83;7.33;;;7.70;99.90;;;;;;10519485;28;20225;-79
2024/01/02 07:44:13;;;;;;;7.20;7.00;;;7.70;99.90;;;;;;10539681;28;20196;-78
2024/01/02 07:49:16;;;;;;;7.43;7.13;;;7.70;99.90;;;;;;10538896;28;20202;-78
2024/01/02 07:54:19;;;;;;;6.03;5.83;;;7.80;99.90;;;;;;10537931;28;20211;-78
2024/01/02 07:59:25;;;;;;;7.30;6.90;;;7.80;99.90;;;;;;10537609;28;20609;-79
2024/01/02 08:04:29;;;;;;;6.93;6.63;;;7.80;99.90;;;;;;10530598;28;20223;-78
2024/01/02 08:09:32;;;;;;;7.17;6.97;;;7.90;99.90;;;;;;10531538;28;20219;-77
2024/01/02 08:14:35;;;;;;;6.10;5.90;;;7.90;99.90;;;;;;10503377;28;20199;-78
2024/01/02 08:19:38;;;;;;;6.97;6.77;;;7.90;99.90;;;;;;10533143;28;20246;-78
2024/01/02 08:24:40;;;;;;;6.50;6.30;;;8.10;99.90;;;;;;10533300;28;20240;-78
2024/01/02 08:29:44;;;;;;;7.70;7.40;;;8.10;99.90;;;;;;10502249;28;20632;-78
2024/01/02 08:34:46;;;;;;;5.03;4.93;;;8.20;99.90;;;;;;10533902;28;20344;-78
2024/01/02 08:39:48;;;;;;;6.50;6.30;;;8.20;99.90;;;;;;10534270;28;20685;-79
2024/01/02 08:44:52;;;;;;;6.10;5.90;;;8.30;99.90;;;;;;10535141;28;20268;-78
2024/01/02 08:49:54;;;;;;;6.33;6.13;;;8.30;99.90;;;;;;10536154;28;20212;-79
2024/01/02 08:54:57;;;;;;;5.33;5.10;;;8.30;99.90;;;;;;10502433;28;20614;-79
2024/01/02 09:00:01;;;;;;;4.80;4.70;;;8.40;99.90;;;;;;10487386;28;20626;-78
2024/01/02 09:05:04;;;;;;;5.13;5.00;;;8.50;99.90;;;;;;10540859;28;20219;-79
2024/01/02 09:10:08;;;;;;;4.17;4.07;;;8.60;99.90;;;;;;10541364;28;20642;-78
2024/01/02 09:15:13;;;;;;;4.30;4.20;;;8.70;99.90;;;;;;10528138;28;20253;-77
2024/01/02 09:20:15;;;;;;;4.30;4.20;;;8.80;99.90;;;;;;10495248;28;20240;-78
2024/01/02 09:25:20;;;;;;;4.50;4.40;;;8.90;99.90;;;;;;10531192;28;20231;-78
2024/01/02 09:30:24;;;;;;;4.67;4.57;;;8.90;99.90;;;;;;10518419;28;20223;-78
2024/01/02 09:35:26;;;;;;;4.83;4.73;;;9.00;99.90;;;;;;10532943;28;20195;-78
2024/01/02 09:40:46;;;;;;;3.70;3.60;;;9.10;99.90;;;;;;10510564;28;20207;-78
2024/01/02 09:46:00;;;;;;;4.40;3.70;;;9.10;99.90;;;;;;10532900;28;20216;-79
2024/01/02 09:51:08;;;;;;;3.60;3.40;;;9.20;99.90;;;;;;10534672;28;20224;-79
2024/01/02 09:56:17;;;;;;;3.00;2.90;;;9.40;99.90;;;;;;10534348;28;20673;-78
2024/01/02 10:01:29;;;;;;;2.57;2.47;;;9.50;99.90;;;;;;10525552;28;20257;-77
2024/01/02 10:06:46;;;;;;;1.97;1.87;;;9.60;99.90;;;;;;10532542;28;20244;-77
2024/01/02 10:11:57;;;;;;;3.73;1.90;;;9.70;99.90;;;;;;10535178;28;20223;-77
2024/01/02 10:17:13;;;;;;;1.60;1.60;;;9.90;99.90;;;;;;10498735;28;20241;-77
2024/01/02 10:22:26;;;;;;;1.33;1.33;;;10.00;99.90;;;;;;10509426;28;20708;-77
2024/01/02 10:27:39;;;;;;;1.30;1.30;;;10.10;99.90;;;;;;10530266;28;20232;-78
2024/01/02 10:32:48;;;;;;;1.37;1.37;;;10.30;99.90;;;;;;10519000;28;20272;-78
2024/01/02 10:38:03;;;;;;;1.50;1.50;;;10.30;99.90;;;;;;10539909;28;20196;-78
2024/01/02 10:43:14;;;;;;;1.40;1.40;;;10.40;99.90;;;;;;10539780;28;20207;-78
2024/01/02 10:48:38;;;;;;;1.63;1.20;;;10.50;99.90;;;;;;10541398;28;20704;-77
2024/01/02 10:53:50;;;;;;;1.23;1.23;;;10.50;99.90;;;;;;10543786;28;20727;-78
2024/01/02 10:59:03;;;;;;;1.40;1.30;;;10.60;99.90;;;;;;10525048;28;20188;-78
2024/01/02 11:04:17;;;;;;;1.30;1.30;;;10.60;99.90;;;;;;10493341;28;20208;-77
2024/01/02 11:09:26;;;;;;;1.20;1.20;;;10.70;99.90;;;;;;10530884;28;20323;-78
2024/01/02 11:14:29;;;;;;;1.73;1.63;;;10.80;99.90;;;;;;10541016;28;20215;-78
2024/01/02 11:19:40;;;;;;;1.40;1.40;;;10.80;99.90;;;;;;10514106;28;20219;-77
2024/01/02 11:24:48;;;;;;;1.40;1.40;;;10.80;99.90;;;;;;10510242;28;20208;-77
2024/01/02 11:29:54;;;;;;;1.40;1.40;;;10.90;99.90;;;;;;10503518;28;20227;-78
2024/01/02 11:35:05;;;;;;;1.00;1.00;;;11.00;99.90;;;;;;10514785;28;20211;-77
2024/01/02 11:40:20;;;;;;;1.03;1.03;;;11.10;99.90;;;;;;10527091;28;20220;-78
2024/01/02 11:45:24;;;;;;;1.90;1.80;;;11.20;99.90;;;;;;10533654;28;20218;-78
2024/01/02 11:50:37;;;;;;;1.40;1.30;;;11.30;99.90;;;;;;10534614;28;20216;-77
2024/01/02 11:55:45;;;;;;;1.47;1.37;;;11.40;99.90;;;;;;10486098;28;20640;-78
2024/01/02 12:00:58;;;;;;;1.50;1.50;;;11.40;99.90;;;;;;10501794;28;20220;-77
2024/01/02 12:06:06;;;;;;;1.83;1.40;;;11.40;99.90;;;;;;10486448;28;20216;-77
2024/01/02 12:11:12;;;;;;;4.10;3.80;;;11.40;99.90;;;;;;10495250;28;20315;-77
2024/01/02 12:16:20;;;;;;;1.87;1.77;;;11.40;99.90;;;;;;10530955;28;20233;-76
2024/01/02 12:21:28;;;;;;;1.53;1.20;;;11.40;99.90;;;;;;10530193;28;20223;-77
2024/01/02 12:26:34;;;;;;;1.30;1.30;;;11.40;99.90;;;;;;10484379;28;20216;-76
2024/01/02 12:31:42;;;;;;;2.50;1.43;;;11.40;99.90;;;;;;10493239;28;20228;-78
2024/01/02 12:36:48;;;;;;;2.03;1.40;;;11.30;99.90;;;;;;10531442;28;20192;-77
2024/01/02 12:41:53;;;;;;;1.20;1.20;;;11.20;99.90;;;;;;10532723;28;20238;-77
2024/01/02 12:47:05;;;;;;;1.50;1.40;;;11.10;99.90;;;;;;10532378;28;20212;-77
2024/01/02 12:52:17;;;;;;;1.27;1.17;;;11.00;99.90;;;;;;10487530;28;20227;-77
2024/01/02 12:57:20;;;;;;;1.67;1.40;;;10.90;99.90;;;;;;10533802;28;20200;-77
2024/01/02 13:02:23;;;;;;;1.10;1.10;;;10.90;99.90;;;;;;10534286;28;20219;-76
2024/01/02 13:07:27;;;;;;;1.37;1.37;;;10.90;99.90;;;;;;10504404;28;20639;-76
2024/01/02 13:12:29;;;;;;;1.37;1.30;;;10.90;99.90;;;;;;10526316;28;20786;-76
2024/01/02 13:17:32;;;;;;;1.47;1.40;;;11.00;99.90;;;;;;10486042;28;20208;-77
2024/01/02 13:22:37;;;;;;;1.60;1.50;;;10.90;99.90;;;;;;10489694;28;20270;-77
2024/01/02 13:27:39;;;;;;;1.40;1.30;;;10.90;99.90;;;;;;10510722;28;20220;-76
2024/01/02 13:32:41;;;;;;;1.20;1.20;;;11.00;99.90;;;;;;10487905;28;20293;-77
2024/01/02 13:37:46;;;;;;;2.10;2.00;;;11.00;99.90;;;;;;10494863;28;20570;-78
2024/01/02 13:42:55;;;;;;;1.37;1.37;;;10.90;99.90;;;;;;10511973;28;20208;-78
2024/01/02 13:48:02;;;;;;;2.27;1.63;;;10.90;99.90;;;;;;10520866;28;20211;-78
2024/01/02 13:53:07;;;;;;;2.30;2.20;;;10.80;99.90;;;;;;10504834;28;20639;-77
2024/01/02 13:58:14;;;;;;;1.83;1.73;;;10.90;99.90;;;;;;10476599;28;20205;-77
2024/01/02 14:03:18;;;;;;;1.40;1.40;;;10.80;99.90;;;;;;10506040;28;20225;-77
2024/01/02 14:08:22;;;;;;;1.23;1.23;;;10.90;99.90;;;;;;10501449;28;20219;-77
2024/01/02 14:13:27;;;;;;;1.40;1.40;;;10.80;99.90;;;;;;10503628;28;20229;-78
2024/01/02 14:18:31;;;;;;;1.60;1.60;;;10.80;99.90;;;;;;10517579;28;20234;-77
2024/01/02 14:23:46;;;;;;;2.03;1.93;;;10.70;99.90;;;;;;10519965;28;20215;-77
2024/01/02 14:28:57;;;;;;;1.60;1.60;;;10.60;99.90;;;;;;10521177;28;20659;-78
2024/01/02 14:34:19;;;;;;;2.77;1.57;;;10.60;99.90;;;;;;10515316;28;20249;-78
2024/01/02 14:39:51;;;;;;;1.70;1.70;;;10.50;99.90;;;;;;10513861;28;20419;-77
2024/01/02 14:45:00;;;;;;;2.10;1.90;;;10.40;99.90;;;;;;10512618;28;20196;-77
2024/01/02 14:50:05;;;;;;;2.60;1.90;;;10.40;99.90;;;;;;10503572;28;20247;-78
2024/01/02 14:55:23;;;;;;;3.83;2.93;;;10.30;99.90;;;;;;10507751;28;20261;-78
2024/01/02 15:00:29;;;;;;;2.10;2.10;;;10.20;99.90;;;;;;10508243;28;20205;-78
2024/01/02 15:05:40;;;;;;;2.50;2.40;;;10.20;99.90;;;;;;10511409;28;20215;-77
2024/01/02 15:10:57;;;;;;;2.03;2.03;;;10.10;99.90;;;;;;10500934;28;20236;-78
2024/01/02 15:16:15;;;;;;;2.77;2.67;;;10.00;99.90;;;;;;10510313;28;20196;-78
2024/01/02 15:21:20;;;;;;;2.30;2.20;;;10.00;99.90;;;;;;10502171;28;20997;-78
2024/01/02 15:26:33;;;;;;;3.10;3.00;;;10.00;99.90;;;;;;10496551;28;20201;-78
2024/01/02 15:31:43;;;;;;;3.23;3.13;;;9.90;99.90;;;;;;10506110;28;20708;-77
2024/01/02 15:36:53;;;;;;;2.13;2.13;;;9.90;99.90;;;;;;10498574;28;20670;-78
2024/01/02 15:41:58;;;;;;;3.20;3.10;;;9.90;99.90;;;;;;10491689;28;20216;-78
2024/01/02 15:47:13;;;;;;;3.13;2.93;;;9.90;99.90;;;;;;10490147;28;20266;-78
2024/01/02 15:52:21;;;;;;;2.70;2.60;;;9.90;99.90;;;;;;10507669;28;20224;-78
2024/01/02 15:57:25;;;;;;;2.60;2.40;;;10.00;99.90;;;;;;10498545;28;20207;-78
2024/01/02 16:02:55;;;;;;;2.50;2.40;;;9.90;99.90;;;;;;10504621;28;20270;-78
2024/01/02 16:08:07;;;;;;;2.13;2.03;;;9.90;99.90;;;;;;10498845;28;20212;-77
2024/01/02 16:13:32;;;;;;;1.30;1.30;;;9.90;99.90;;;;;;10499581;28;20212;-77
2024/01/02 16:19:01;;;;;;;1.60;1.60;;;10.00;99.90;;;;;;10491656;28;20192;-77
2024/01/02 16:24:31;;;;;;;2.10;2.00;;;10.10;99.90;;;;;;10500581;28;20201;-78
2024/01/02 16:29:57;;;;;;;2.00;1.90;;;10.20;99.90;;;;;;10494004;28;20578;-77
2024/01/02 16:35:10;;;;;;;1.90;1.80;;;10.20;99.90;;;;;;10500899;28;20208;-77
2024/01/02 16:40:32;;;;;;;1.50;1.50;;;10.30;99.90;;;;;;10504693;28;20992;-78
2024/01/02 16:45:36;;;;;;;1.60;1.60;;;10.40;99.90;;;;;;10491180;28;20285;-77
2024/01/02 16:50:41;;;;;;;1.97;1.97;;;10.30;99.90;;;;;;10491788;28;20227;-77
2024/01/02 16:55:46;;;;;;;2.10;2.00;;;10.40;99.90;;;;;;10491001;28;20212;-78
2024/01/02 17:00:50;;;;;;;2.43;2.33;;;10.30;99.90;;;;;;10494612;28;20212;-78
2024/01/02 17:05:54;;;;;;;2.80;2.60;;;10.30;99.90;;;;;;10494913;28;20196;-78
2024/01/02 17:10:57;;;;;;;2.50;2.40;;;10.30;99.90;;;;;;10501032;28;20604;-78
2024/01/02 17:16:03;;;;;;;2.67;2.57;;;10.20;99.90;;;;;;10491808;28;20197;-78
2024/01/02 17:21:07;;;;;;;2.50;2.40;;;10.20;99.90;;;;;;10497483;28;20216;-79
2024/01/02 17:26:11;;;;;;;2.70;2.60;;;10.20;99.90;;;;;;10505260;28;20230;-78
2024/01/02 17:31:15;;;;;;;2.53;2.43;;;10.20;99.90;;;;;;10490351;28;20278;-78
2024/01/02 17:36:26;;;;;;;2.77;2.67;;;10.10;99.90;;;;;;10479492;28;20697;-78
2024/01/02 17:41:30;;;;;;;3.83;3.63;;;10.00;99.90;;;;;;10487054;28;20212;-78
2024/01/02 17:46:36;;;;;;;5.40;5.20;;;10.00;99.90;;;;;;10480828;28;20201;-77
2024/01/02 17:51:40;;;;;;;4.33;4.23;;;9.90;99.90;;;;;;10494673;28;20702;-78
2024/01/02 17:56:45;;;;;;;5.10;4.80;;;9.90;99.90;;;;;;10502682;28;20208;-78
2024/01/02 18:01:57;;;;;;;5.93;5.73;;;9.80;99.90;;;;;;10486932;28;21019;-78
2024/01/02 18:07:12;;;;;;;6.23;6.03;;;9.70;99.90;;;;;;10485443;28;20250;-77
2024/01/02 18:12:23;;;;;;;6.30;6.10;;;9.70;99.90;;;;;;10513431;28;20219;-77
2024/01/02 18:17:35;;;;;;;5.77;5.57;;;9.70;99.90;;;;;;10525068;28;20206;-78
2024/01/02 18:22:44;;;;;;;6.33;6.10;;;9.70;99.90;;;;;;10525431;28;20269;-76
2024/01/02 18:28:00;;;;;;;6.60;6.30;;;9.50;99.90;;;;;;10527989;28;20228;-77
2024/01/02 18:33:16;;;;;;;6.87;6.57;;;9.60;99.90;;;;;;10503523;28;20229;-78
2024/01/02 18:38:20;;;;;;;6.30;6.10;;;9.50;99.90;;;;;;10503253;28;20219;-78
2024/01/02 18:43:33;;;;;;;6.10;5.90;;;9.50;99.90;;;;;;10537130;28;20216;-76
2024/01/02 18:48:41;;;;;;;6.23;6.03;;;9.50;99.90;;;;;;10536565;28;20219;-78
2024/01/02 18:53:47;;;;;;;6.57;6.37;;;9.50;99.90;;;;;;10505781;28;20220;-77
2024/01/02 18:58:51;;;;;;;7.50;7.20;;;9.50;99.90;;;;;;10499137;28;20201;-77
2024/01/02 19:04:07;;;;;;;6.57;6.37;;;9.50;99.90;;;;;;10499165;28;20238;-77
2024/01/02 19:09:14;;;;;;;5.80;5.60;;;9.60;99.90;;;;;;10495002;28;20273;-77
2024/01/02 19:14:16;;;;;;;6.00;5.70;;;9.60;99.90;;;;;;10474991;28;20620;-77
2024/01/02 19:19:20;;;;;;;3.83;3.73;;;9.50;99.90;;;;;;10491263;28;20603;-77
2024/01/02 19:24:24;;;;;;;5.70;5.50;;;9.50;99.90;;;;;;10497220;28;20192;-77
2024/01/02 19:29:27;;;;;;;5.83;5.63;;;9.60;99.90;;;;;;10524461;28;20224;-78
2024/01/02 19:34:31;;;;;;;5.80;5.60;;;9.60;99.90;;;;;;10533097;28;20191;-77
2024/01/02 19:39:33;;;;;;;6.43;6.13;;;9.60;99.90;;;;;;10521188;28;20204;-77
2024/01/02 19:44:39;;;;;;;5.50;5.10;;;9.70;99.90;;;;;;10514997;28;20197;-78
2024/01/02 19:49:44;;;;;;;5.50;5.30;;;9.70;99.90;;;;;;10515989;28;20278;-78
2024/01/02 19:54:47;;;;;;;4.10;3.97;;;9.70;99.90;;;;;;10485562;28;20585;-77
2024/01/02 19:59:49;;;;;;;5.50;5.30;;;9.90;99.90;;;;;;10502509;28;20231;-78
2024/01/02 20:04:53;;;;;;;4.57;4.47;;;9.90;99.90;;;;;;10500447;28;20278;-78
2024/01/02 20:10:00;;;;;;;5.07;4.87;;;9.90;99.90;;;;;;10485604;28;20281;-78
2024/01/02 20:15:02;;;;;;;3.90;3.70;;;10.00;99.90;;;;;;10481987;28;20209;-77
2024/01/02 20:20:45;;;;;;;7.30;6.87;;;10.20;99.90;;;;;;10481635;28;20262;-77
2024/01/02 20:25:57;;;;;;;3.83;3.73;;;10.30;99.90;;;;;;10485105;28;20256;-77
2024/01/02 20:30:59;;;;;;;3.50;3.40;;;10.40;99.90;;;;;;10500337;28;20731;-78
2024/01/02 20:36:03;;;;;;;3.50;3.40;;;10.50;99.90;;;;;;10489977;28;20249;-78
2024/01/02 20:41:49;;;;;;;3.00;2.90;;;10.70;99.90;;;;;;10518263;28;20559;-78
2024/01/02 20:46:52;;;;;;;3.20;3.10;;;10.80;99.90;;;;;;10514678;28;20246;-77
2024/01/02 20:51:55;;;;;;;3.30;3.20;;;10.80;99.90;;;;;;10499134;28;20231;-77
2024/01/02 20:57:03;;;;;;;2.80;2.70;;;10.80;99.90;;;;;;10493027;28;20548;-77
2024/01/02 21:02:18;;;;;;;2.60;2.50;;;10.70;99.90;;;;;;10484995;28;20216;-77
2024/01/02 21:07:32;;;;;;;2.43;2.33;;;10.70;99.90;;;;;;10489587;28;20245;-78
2024/01/02 21:12:38;;;;;;;2.30;2.20;;;10.60;99.90;;;;;;10483428;28;20232;-77
2024/01/02 21:17:41;;;;;;;2.10;2.00;;;10.70;99.90;;;;;;10486339;28;20200;-77
2024/01/02 21:22:59;;;;;;;2.10;2.00;;;10.70;99.90;;;;;;10480006;28;20779;-78
2024/01/02 21:28:06;;;;;;;2.50;2.00;;;10.80;99.90;;;;;;10486659;28;20192;-78
2024/01/02 21:33:09;;;;;;;1.67;1.67;;;10.80;99.90;;;;;;10483675;28;20228;-78
2024/01/02 21:38:13;;;;;;;1.50;1.40;;;10.80;99.90;;;;;;10489164;28;20185;-77
2024/01/02 21:43:26;;;;;;;1.80;1.70;;;10.90;99.90;;;;;;10484715;28;20208;-77
2024/01/02 21:48:41;;;;;;;1.80;1.70;;;10.90;99.90;;;;;;10482982;28;20270;-77
2024/01/02 21:53:44;;;;;;;1.60;1.60;;;10.80;99.90;;;;;;10484630;28;20227;-77
2024/01/02 21:58:48;;;;;;;1.40;1.40;;;10.90;99.90;;;;;;10488315;28;20204;-77
2024/01/02 22:03:52;;;;;;;1.63;1.63;;;10.90;99.90;;;;;;10493309;28;20712;-77
2024/01/02 22:09:01;;;;;;;1.80;1.77;;;10.80;99.90;;;;;;10489398;28;20224;-76
2024/01/02 22:14:08;;;;;;;1.93;1.93;;;10.80;99.90;;;;;;10488473;28;20587;-76
2024/01/02 22:19:46;;;;;;;1.60;1.60;;;10.80;99.90;;;;;;10489111;28;20747;-76
2024/01/02 22:24:57;;;;;;;1.57;1.50;;;10.90;99.90;;;;;;10489041;28;20204;-76
2024/01/02 22:30:30;;;;;;;1.67;1.57;;;10.90;99.90;;;;;;10531076;28;20727;-76
2024/01/02 22:35:40;;;;;;;2.07;1.97;;;10.90;99.90;;;;;;10505158;28;20197;-76
2024/01/02 22:40:43;;;;;;;1.70;1.70;;;10.80;99.90;;;;;;10489548;28;20988;-75
2024/01/02 22:45:47;;;;;;;1.60;1.60;;;10.70;99.90;;;;;;10497204;28;20677;-75
2024/01/02 22:50:50;;;;;;;1.90;1.80;;;10.70;99.90;;;;;;10483785;28;20227;-75
2024/01/02 22:55:52;;;;;;;1.97;1.97;;;10.70;99.90;;;;;;10497360;28;20204;-76
2024/01/02 23:00:57;;;;;;;1.70;1.70;;;10.60;99.90;;;;;;10493050;28;20386;-76
2024/01/02 23:06:00;;;;;;;1.90;1.90;;;10.70;99.90;;;;;;10515137;28;20612;-76
2024/01/02 23:11:03;;;;;;;1.90;1.90;;;10.60;99.90;;;;;;10473381;28;20228;-76
2024/01/02 23:16:11;;;;;;;2.20;2.20;;;10.60;99.90;;;;;;10524498;28;20226;-76
2024/01/02 23:21:15;;;;;;;2.30;2.27;;;10.50;99.90;;;;;;10526880;28;20235;-76
2024/01/02 23:26:17;;;;;;;2.50;2.40;;;10.40;99.90;;;;;;10496763;28;20200;-76
2024/01/02 23:31:21;;;;;;;2.73;2.63;;;10.40;99.90;;;;;;10478486;28;20236;-76
2024/01/02 23:36:24;;;;;;;2.30;2.30;;;10.40;99.90;;;;;;10491829;28;20266;-74
2024/01/02 23:41:32;;;;;;;2.60;2.50;;;10.30;99.90;;;;;;10504918;28;20208;-76
2024/01/02 23:46:36;;;;;;;2.80;2.60;;;10.30;99.90;;;;;;10498540;28;20197;-76
2024/01/02 23:51:39;;;;;;;2.50;2.30;;;10.30;99.90;;;;;;10490659;28;20220;-75
2024/01/02 23:56:42;;;;;;;2.90;2.80;;;10.30;99.90;;;;;;10489168;28;20204;-77
